sensor_id;sensor_type;location;lat;lon;timestamp;temperature;humidity
37300;DHT22;23184;51.902;12.836;2023-10-09T00:00:31;10.90;99.90
37300;DHT22;23184;51.902;12.836;2023-10-09T00:03:06;10.90;99.90
37300;DHT22;23184;51.902;12.836;2023-10-09T00:05:35;10.90;99.90
37300;DHT22;23184;51.902;12.836;2023-10-09T00:08:11;10.90;99.90
37300;DHT22;23184;51.902;12.836;2023-10-09T00:10:56;10.90;99.90
37300;DHT22;23184;51.902;12.836;2023-10-09T00:13:24;11.00;99.90
37300;DHT22;23184;51.902;12.836;2023-10-09T00:15:54;10.90;99.90
37300;DHT22;23184;51.902;12.836;2023-10-09T00:18:24;10.90;99.90
37300;DHT22;23184;51.902;12.836;2023-10-09T00:20:54;10.90;99.90
37300;DHT22;23184;51.902;12.836;2023-10-09T00:23:20;11.00;99.90
37300;DHT22;23184;51.902;12.836;2023-10-09T00:25:51;11.00;99.90
37300;DHT22;23184;51.902;12.836;2023-10-09T00:28:37;11.00;99.90
37300;DHT22;23184;51.902;12.836;2023-10-09T00:31:15;11.00;99.90
37300;DHT22;23184;51.902;12.836;2023-10-09T00:33:44;10.90;99.90
37300;DHT22;23184;51.902;12.836;2023-10-09T00:36:09;10.90;99.90
37300;DHT22;23184;51.902;12.836;2023-10-09T00:38:36;10.90;99.90
37300;DHT22;23184;51.902;12.836;2023-10-09T00:41:05;10.90;99.90
37300;DHT22;23184;51.902;12.836;2023-10-09T00:43:33;10.90;99.90
37300;DHT22;23184;51.902;12.836;2023-10-09T00:46:02;10.90;99.90
37300;DHT22;23184;51.902;12.836;2023-10-09T00:48:38;10.90;99.90
37300;DHT22;23184;51.902;12.836;2023-10-09T00:51:07;10.90;99.90
37300;DHT22;23184;51.902;12.836;2023-10-09T00:56:10;10.90;99.90
37300;DHT22;23184;51.902;12.836;2023-10-09T00:58:59;10.90;99.90
37300;DHT22;23184;51.902;12.836;2023-10-09T01:01:54;10.90;99.90
37300;DHT22;23184;51.902;12.836;2023-10-09T01:04:30;10.80;99.90
37300;DHT22;23184;51.902;12.836;2023-10-09T01:07:02;10.80;99.90
37300;DHT22;23184;51.902;12.836;2023-10-09T01:09:33;10.80;99.90
37300;DHT22;23184;51.902;12.836;2023-10-09T01:12:04;10.70;99.90
37300;DHT22;23184;51.902;12.836;2023-10-09T01:14:33;10.70;99.90
37300;DHT22;23184;51.902;12.836;2023-10-09T01:17:03;10.70;99.90
37300;DHT22;23184;51.902;12.836;2023-10-09T01:19:36;10.70;99.90
37300;DHT22;23184;51.902;12.836;2023-10-09T01:22:01;10.70;99.90
37300;DHT22;23184;51.902;12.836;2023-10-09T01:24:38;10.70;99.90
37300;DHT22;23184;51.902;12.836;2023-10-09T01:27:07;10.70;99.90
37300;DHT22;23184;51.902;12.836;2023-10-09T01:29:42;10.70;99.90
37300;DHT22;23184;51.902;12.836;2023-10-09T01:32:09;10.70;99.90
37300;DHT22;23184;51.902;12.836;2023-10-09T01:34:43;10.70;99.90
37300;DHT22;23184;51.902;12.836;2023-10-09T01:37:16;10.60;99.90
37300;DHT22;23184;51.902;12.836;2023-10-09T01:39:48;10.60;99.90
37300;DHT22;23184;51.902;12.836;2023-10-09T01:42:17;10.60;99.90
37300;DHT22;23184;51.902;12.836;2023-10-09T01:45:13;10.60;99.90
37300;DHT22;23184;51.902;12.836;2023-10-09T01:47:45;10.70;99.90
37300;DHT22;23184;51.902;12.836;2023-10-09T01:50:17;10.70;99.90
37300;DHT22;23184;51.902;12.836;2023-10-09T01:52:47;10.60;99.90
37300;DHT22;23184;51.902;12.836;2023-10-09T01:55:13;10.60;99.90
37300;DHT22;23184;51.902;12.836;2023-10-09T01:57:54;10.60;99.90
37300;DHT22;23184;51.902;12.836;2023-10-09T02:00:19;10.60;99.90
37300;DHT22;23184;51.902;12.836;2023-10-09T02:02:50;10.60;99.90
37300;DHT22;23184;51.902;12.836;2023-10-09T02:05:16;10.60;99.90
37300;DHT22;23184;51.902;12.836;2023-10-09T02:07:42;10.60;99.90
37300;DHT22;23184;51.902;12.836;2023-10-09T02:10:17;10.50;99.90
37300;DHT22;23184;51.902;12.836;2023-10-09T02:13:00;10.50;99.90
37300;DHT22;23184;51.902;12.836;2023-10-09T02:15:32;10.50;99.90
37300;DHT22;23184;51.902;12.836;2023-10-09T02:18:11;10.50;99.90
37300;DHT22;23184;51.902;12.836;2023-10-09T02:20:46;10.50;99.90
37300;DHT22;23184;51.902;12.836;2023-10-09T02:23:34;10.50;99.90
37300;DHT22;23184;51.902;12.836;2023-10-09T02:26:09;10.50;99.90
37300;DHT22;23184;51.902;12.836;2023-10-09T02:28:42;10.50;99.90
37300;DHT22;23184;51.902;12.836;2023-10-09T02:31:12;10.50;99.90
37300;DHT22;23184;51.902;12.836;2023-10-09T02:33:38;10.50;99.90
37300;DHT22;23184;51.902;12.836;2023-10-09T02:36:07;10.50;99.90
37300;DHT22;23184;51.902;12.836;2023-10-09T02:38:33;10.50;99.90
37300;DHT22;23184;51.902;12.836;2023-10-09T02:41:01;10.50;99.90
37300;DHT22;23184;51.902;12.836;2023-10-09T02:43:34;10.50;99.90
37300;DHT22;23184;51.902;12.836;2023-10-09T02:46:19;10.50;99.90
37300;DHT22;23184;51.902;12.836;2023-10-09T02:48:48;10.50;99.90
37300;DHT22;23184;51.902;12.836;2023-10-09T02:51:17;10.50;99.90
37300;DHT22;23184;51.902;12.836;2023-10-09T02:54:09;10.50;99.90
37300;DHT22;23184;51.902;12.836;2023-10-09T02:56:53;10.50;99.90
37300;DHT22;23184;51.902;12.836;2023-10-09T02:59:23;10.50;99.90
37300;DHT22;23184;51.902;12.836;2023-10-09T03:01:49;10.50;99.90
37300;DHT22;23184;51.902;12.836;2023-10-09T03:04:17;10.50;99.90
37300;DHT22;23184;51.902;12.836;2023-10-09T03:06:44;10.50;99.90
37300;DHT22;23184;51.902;12.836;2023-10-09T03:09:17;10.50;99.90
37300;DHT22;23184;51.902;12.836;2023-10-09T03:11:48;10.50;99.90
37300;DHT22;23184;51.902;12.836;2023-10-09T03:14:22;10.40;99.90
37300;DHT22;23184;51.902;12.836;2023-10-09T03:16:55;10.40;99.90
37300;DHT22;23184;51.902;12.836;2023-10-09T03:19:31;10.40;99.90
37300;DHT22;23184;51.902;12.836;2023-10-09T03:21:59;10.30;99.90
37300;DHT22;23184;51.902;12.836;2023-10-09T03:24:25;10.30;99.90
37300;DHT22;23184;51.902;12.836;2023-10-09T03:26:52;10.30;99.90
37300;DHT22;23184;51.902;12.836;2023-10-09T03:29:21;10.20;99.90
37300;DHT22;23184;51.902;12.836;2023-10-09T03:31:47;10.20;99.90
37300;DHT22;23184;51.902;12.836;2023-10-09T03:34:12;10.10;99.90
37300;DHT22;23184;51.902;12.836;2023-10-09T03:36:38;10.00;99.90
37300;DHT22;23184;51.902;12.836;2023-10-09T03:39:07;9.90;99.90
37300;DHT22;23184;51.902;12.836;2023-10-09T03:41:52;9.90;99.90
37300;DHT22;23184;51.902;12.836;2023-10-09T03:44:19;9.80;99.90
37300;DHT22;23184;51.902;12.836;2023-10-09T03:46:45;9.70;99.90
37300;DHT22;23184;51.902;12.836;2023-10-09T03:49:11;9.60;99.90
37300;DHT22;23184;51.902;12.836;2023-10-09T03:51:39;9.60;99.90
37300;DHT22;23184;51.902;12.836;2023-10-09T03:54:05;9.50;99.90
37300;DHT22;23184;51.902;12.836;2023-10-09T03:56:34;9.50;99.90
37300;DHT22;23184;51.902;12.836;2023-10-09T03:59:00;9.40;99.90
37300;DHT22;23184;51.902;12.836;2023-10-09T04:01:27;9.40;99.90
37300;DHT22;23184;51.902;12.836;2023-10-09T04:04:03;9.40;99.90
37300;DHT22;23184;51.902;12.836;2023-10-09T04:06:31;9.40;99.90
37300;DHT22;23184;51.902;12.836;2023-10-09T04:09:02;9.40;99.90
37300;DHT22;23184;51.902;12.836;2023-10-09T04:11:40;9.40;99.90
37300;DHT22;23184;51.902;12.836;2023-10-09T04:14:09;9.40;99.90
37300;DHT22;23184;51.902;12.836;2023-10-09T04:16:39;9.40;99.90
37300;DHT22;23184;51.902;12.836;2023-10-09T04:19:31;9.40;99.90
37300;DHT22;23184;51.902;12.836;2023-10-09T04:22:04;9.40;99.90
37300;DHT22;23184;51.902;12.836;2023-10-09T04:24:33;9.40;99.90
37300;DHT22;23184;51.902;12.836;2023-10-09T04:27:07;9.40;99.90
37300;DHT22;23184;51.902;12.836;2023-10-09T04:29:34;9.40;99.90
37300;DHT22;23184;51.902;12.836;2023-10-09T04:32:06;9.40;99.90
37300;DHT22;23184;51.902;12.836;2023-10-09T04:34:41;9.40;99.90
37300;DHT22;23184;51.902;12.836;2023-10-09T04:37:36;9.40;99.90
37300;DHT22;23184;51.902;12.836;2023-10-09T04:40:08;9.40;99.90
37300;DHT22;23184;51.902;12.836;2023-10-09T04:42:52;9.40;99.90
37300;DHT22;23184;51.902;12.836;2023-10-09T04:45:24;9.40;99.90
37300;DHT22;23184;51.902;12.836;2023-10-09T04:48:08;9.40;99.90
37300;DHT22;23184;51.902;12.836;2023-10-09T04:50:35;9.30;99.90
37300;DHT22;23184;51.902;12.836;2023-10-09T04:53:01;9.40;99.90
37300;DHT22;23184;51.902;12.836;2023-10-09T04:55:41;9.40;99.90
37300;DHT22;23184;51.902;12.836;2023-10-09T04:58:23;9.40;99.90
37300;DHT22;23184;51.902;12.836;2023-10-09T05:00:55;9.40;99.90
37300;DHT22;23184;51.902;12.836;2023-10-09T05:03:23;9.50;99.90
37300;DHT22;23184;51.902;12.836;2023-10-09T05:06:08;9.50;99.90
37300;DHT22;23184;51.902;12.836;2023-10-09T05:09:06;9.40;99.90
37300;DHT22;23184;51.902;12.836;2023-10-09T05:11:38;9.50;99.90
37300;DHT22;23184;51.902;12.836;2023-10-09T05:14:20;9.40;99.90
37300;DHT22;23184;51.902;12.836;2023-10-09T05:16:53;9.40;99.90
37300;DHT22;23184;51.902;12.836;2023-10-09T05:19:26;9.50;99.90
37300;DHT22;23184;51.902;12.836;2023-10-09T05:22:10;9.50;99.90
37300;DHT22;23184;51.902;12.836;2023-10-09T05:24:58;9.50;99.90
37300;DHT22;23184;51.902;12.836;2023-10-09T05:27:23;9.50;99.90
37300;DHT22;23184;51.902;12.836;2023-10-09T05:30:08;9.50;99.90
37300;DHT22;23184;51.902;12.836;2023-10-09T05:32:55;9.60;99.90
37300;DHT22;23184;51.902;12.836;2023-10-09T05:35:29;9.60;99.90
37300;DHT22;23184;51.902;12.836;2023-10-09T05:38:24;9.60;99.90
37300;DHT22;23184;51.902;12.836;2023-10-09T05:40:51;9.60;99.90
37300;DHT22;23184;51.902;12.836;2023-10-09T05:43:30;9.60;99.90
37300;DHT22;23184;51.902;12.836;2023-10-09T05:46:14;9.60;99.90
37300;DHT22;23184;51.902;12.836;2023-10-09T05:48:41;9.60;99.90
37300;DHT22;23184;51.902;12.836;2023-10-09T05:51:06;9.60;99.90
37300;DHT22;23184;51.902;12.836;2023-10-09T05:53:34;9.60;99.90
37300;DHT22;23184;51.902;12.836;2023-10-09T05:56:20;9.60;99.90
37300;DHT22;23184;51.902;12.836;2023-10-09T05:58:57;9.60;99.90
37300;DHT22;23184;51.902;12.836;2023-10-09T06:01:38;9.70;99.90
37300;DHT22;23184;51.902;12.836;2023-10-09T06:04:16;9.70;99.90
37300;DHT22;23184;51.902;12.836;2023-10-09T06:06:44;9.70;99.90
37300;DHT22;23184;51.902;12.836;2023-10-09T06:09:15;9.70;99.90
37300;DHT22;23184;51.902;12.836;2023-10-09T06:11:45;9.70;99.90
37300;DHT22;23184;51.902;12.836;2023-10-09T06:14:20;9.70;99.90
37300;DHT22;23184;51.902;12.836;2023-10-09T06:16:57;9.80;99.90
37300;DHT22;23184;51.902;12.836;2023-10-09T06:19:26;9.80;99.90
37300;DHT22;23184;51.902;12.836;2023-10-09T06:21:56;9.80;99.90
37300;DHT22;23184;51.902;12.836;2023-10-09T06:24:24;9.80;99.90
37300;DHT22;23184;51.902;12.836;2023-10-09T06:26:59;9.80;99.90
37300;DHT22;23184;51.902;12.836;2023-10-09T06:29:28;9.90;99.90
37300;DHT22;23184;51.902;12.836;2023-10-09T06:32:10;9.90;99.90
37300;DHT22;23184;51.902;12.836;2023-10-09T06:34:53;9.90;99.90
37300;DHT22;23184;51.902;12.836;2023-10-09T06:37:23;9.90;99.90
37300;DHT22;23184;51.902;12.836;2023-10-09T06:39:50;9.90;99.90
37300;DHT22;23184;51.902;12.836;2023-10-09T06:42:16;9.90;99.90
37300;DHT22;23184;51.902;12.836;2023-10-09T06:44:59;9.90;99.90
37300;DHT22;23184;51.902;12.836;2023-10-09T06:47:25;10.00;99.90
37300;DHT22;23184;51.902;12.836;2023-10-09T06:49:50;10.00;99.90
37300;DHT22;23184;51.902;12.836;2023-10-09T06:52:34;9.90;99.90
37300;DHT22;23184;51.902;12.836;2023-10-09T06:55:18;9.90;99.90
37300;DHT22;23184;51.902;12.836;2023-10-09T06:57:46;10.00;99.90
37300;DHT22;23184;51.902;12.836;2023-10-09T07:00:15;10.00;99.90
37300;DHT22;23184;51.902;12.836;2023-10-09T07:02:59;10.00;99.90
37300;DHT22;23184;51.902;12.836;2023-10-09T07:05:37;10.00;99.90
37300;DHT22;23184;51.902;12.836;2023-10-09T07:08:22;10.00;99.90
37300;DHT22;23184;51.902;12.836;2023-10-09T07:11:00;10.00;99.90
37300;DHT22;23184;51.902;12.836;2023-10-09T07:13:45;10.10;99.90
37300;DHT22;23184;51.902;12.836;2023-10-09T07:16:20;10.10;99.90
37300;DHT22;23184;51.902;12.836;2023-10-09T07:18:49;10.10;99.90
37300;DHT22;23184;51.902;12.836;2023-10-09T07:21:15;10.20;99.90
37300;DHT22;23184;51.902;12.836;2023-10-09T07:23:43;10.20;99.90
37300;DHT22;23184;51.902;12.836;2023-10-09T07:26:14;10.10;99.90
37300;DHT22;23184;51.902;12.836;2023-10-09T07:28:44;10.10;99.90
37300;DHT22;23184;51.902;12.836;2023-10-09T07:31:20;10.10;99.90
37300;DHT22;23184;51.902;12.836;2023-10-09T07:33:53;10.10;99.90
37300;DHT22;23184;51.902;12.836;2023-10-09T07:36:25;10.20;99.90
37300;DHT22;23184;51.902;12.836;2023-10-09T07:39:04;10.20;99.90
37300;DHT22;23184;51.902;12.836;2023-10-09T07:41:41;10.20;99.90
37300;DHT22;23184;51.902;12.836;2023-10-09T07:44:27;10.20;99.90
37300;DHT22;23184;51.902;12.836;2023-10-09T07:47:03;10.20;99.90
37300;DHT22;23184;51.902;12.836;2023-10-09T07:50:04;10.20;99.90
37300;DHT22;23184;51.902;12.836;2023-10-09T07:52:36;10.30;99.90
37300;DHT22;23184;51.902;12.836;2023-10-09T07:55:09;10.30;99.90
37300;DHT22;23184;51.902;12.836;2023-10-09T07:57:51;10.30;99.90
37300;DHT22;23184;51.902;12.836;2023-10-09T08:00:17;10.30;99.90
37300;DHT22;23184;51.902;12.836;2023-10-09T08:03:01;10.30;99.90
37300;DHT22;23184;51.902;12.836;2023-10-09T08:05:28;10.30;99.90
37300;DHT22;23184;51.902;12.836;2023-10-09T08:08:00;10.30;99.90
37300;DHT22;23184;51.902;12.836;2023-10-09T08:10:44;10.30;99.90
37300;DHT22;23184;51.902;12.836;2023-10-09T08:13:28;10.30;99.90
37300;DHT22;23184;51.902;12.836;2023-10-09T08:16:12;10.40;99.90
37300;DHT22;23184;51.902;12.836;2023-10-09T08:18:45;10.40;99.90
37300;DHT22;23184;51.902;12.836;2023-10-09T08:21:11;10.40;99.90
37300;DHT22;23184;51.902;12.836;2023-10-09T08:23:36;10.40;99.90
37300;DHT22;23184;51.902;12.836;2023-10-09T08:26:15;10.40;99.90
37300;DHT22;23184;51.902;12.836;2023-10-09T08:28:54;10.40;99.90
37300;DHT22;23184;51.902;12.836;2023-10-09T08:31:20;10.40;99.90
37300;DHT22;23184;51.902;12.836;2023-10-09T08:34:11;10.50;99.90
37300;DHT22;23184;51.902;12.836;2023-10-09T08:36:49;10.50;99.90
37300;DHT22;23184;51.902;12.836;2023-10-09T08:39:18;10.50;99.90
37300;DHT22;23184;51.902;12.836;2023-10-09T08:41:51;10.50;99.90
37300;DHT22;23184;51.902;12.836;2023-10-09T08:44:19;10.50;99.90
37300;DHT22;23184;51.902;12.836;2023-10-09T08:46:49;10.50;99.90
37300;DHT22;23184;51.902;12.836;2023-10-09T08:49:16;10.40;99.90
37300;DHT22;23184;51.902;12.836;2023-10-09T08:51:42;10.40;99.90
37300;DHT22;23184;51.902;12.836;2023-10-09T08:54:08;10.40;99.90
37300;DHT22;23184;51.902;12.836;2023-10-09T08:56:37;10.40;99.90
37300;DHT22;23184;51.902;12.836;2023-10-09T08:59:05;10.40;99.90
37300;DHT22;23184;51.902;12.836;2023-10-09T09:01:30;10.40;99.90
37300;DHT22;23184;51.902;12.836;2023-10-09T09:03:57;10.40;99.90
37300;DHT22;23184;51.902;12.836;2023-10-09T09:06:25;10.40;99.90
37300;DHT22;23184;51.902;12.836;2023-10-09T09:08:52;10.30;99.90
37300;DHT22;23184;51.902;12.836;2023-10-09T09:11:24;10.30;99.90
37300;DHT22;23184;51.902;12.836;2023-10-09T09:16:23;10.30;99.90
37300;DHT22;23184;51.902;12.836;2023-10-09T09:19:00;10.40;99.90
37300;DHT22;23184;51.902;12.836;2023-10-09T09:21:29;10.30;99.90
37300;DHT22;23184;51.902;12.836;2023-10-09T09:24:05;10.30;99.90
37300;DHT22;23184;51.902;12.836;2023-10-09T09:26:53;10.30;99.90
37300;DHT22;23184;51.902;12.836;2023-10-09T09:29:45;10.40;99.90
37300;DHT22;23184;51.902;12.836;2023-10-09T09:32:31;10.40;99.90
37300;DHT22;23184;51.902;12.836;2023-10-09T09:35:04;10.40;99.90
37300;DHT22;23184;51.902;12.836;2023-10-09T09:37:31;10.40;99.90
37300;DHT22;23184;51.902;12.836;2023-10-09T09:40:09;10.50;99.90
37300;DHT22;23184;51.902;12.836;2023-10-09T09:42:59;10.50;99.90
37300;DHT22;23184;51.902;12.836;2023-10-09T09:45:35;10.50;99.90
37300;DHT22;23184;51.902;12.836;2023-10-09T09:48:05;10.50;99.90
37300;DHT22;23184;51.902;12.836;2023-10-09T09:50:38;10.50;99.90
37300;DHT22;23184;51.902;12.836;2023-10-09T09:53:14;10.60;99.90
37300;DHT22;23184;51.902;12.836;2023-10-09T09:55:54;10.60;99.90
37300;DHT22;23184;51.902;12.836;2023-10-09T09:58:23;10.70;99.90
37300;DHT22;23184;51.902;12.836;2023-10-09T10:00:59;10.70;99.90
37300;DHT22;23184;51.902;12.836;2023-10-09T10:03:36;10.70;99.90
37300;DHT22;23184;51.902;12.836;2023-10-09T10:06:05;10.80;99.90
37300;DHT22;23184;51.902;12.836;2023-10-09T10:08:35;10.80;99.90
37300;DHT22;23184;51.902;12.836;2023-10-09T10:11:04;10.90;99.90
37300;DHT22;23184;51.902;12.836;2023-10-09T10:16:15;10.80;99.90
37300;DHT22;23184;51.902;12.836;2023-10-09T10:21:35;10.90;99.90
37300;DHT22;23184;51.902;12.836;2023-10-09T10:27:25;11.00;99.90
37300;DHT22;23184;51.902;12.836;2023-10-09T10:35:21;11.10;99.90
37300;DHT22;23184;51.902;12.836;2023-10-09T10:37:58;11.10;99.90
37300;DHT22;23184;51.902;12.836;2023-10-09T10:40:33;11.20;99.90
37300;DHT22;23184;51.902;12.836;2023-10-09T10:43:07;11.20;99.90
37300;DHT22;23184;51.902;12.836;2023-10-09T10:45:38;11.30;99.90
37300;DHT22;23184;51.902;12.836;2023-10-09T10:48:10;11.30;99.90
37300;DHT22;23184;51.902;12.836;2023-10-09T10:50:49;11.30;99.90
37300;DHT22;23184;51.902;12.836;2023-10-09T10:53:22;11.20;99.90
37300;DHT22;23184;51.902;12.836;2023-10-09T10:55:57;11.20;99.90
37300;DHT22;23184;51.902;12.836;2023-10-09T10:58:22;11.20;99.90
37300;DHT22;23184;51.902;12.836;2023-10-09T11:01:00;11.20;99.90
37300;DHT22;23184;51.902;12.836;2023-10-09T11:03:37;11.30;99.90
37300;DHT22;23184;51.902;12.836;2023-10-09T11:06:28;11.30;99.90
37300;DHT22;23184;51.902;12.836;2023-10-09T11:09:05;11.40;99.90
37300;DHT22;23184;51.902;12.836;2023-10-09T11:11:36;11.40;99.90
37300;DHT22;23184;51.902;12.836;2023-10-09T11:14:12;11.40;99.90
37300;DHT22;23184;51.902;12.836;2023-10-09T11:16:49;11.50;99.90
37300;DHT22;23184;51.902;12.836;2023-10-09T11:19:20;11.50;99.90
37300;DHT22;23184;51.902;12.836;2023-10-09T11:21:59;11.60;99.90
37300;DHT22;23184;51.902;12.836;2023-10-09T11:24:32;11.60;99.90
37300;DHT22;23184;51.902;12.836;2023-10-09T11:27:05;11.70;99.90
37300;DHT22;23184;51.902;12.836;2023-10-09T11:29:35;11.80;99.90
37300;DHT22;23184;51.902;12.836;2023-10-09T11:32:08;11.80;99.90
37300;DHT22;23184;51.902;12.836;2023-10-09T11:34:50;11.90;99.90
37300;DHT22;23184;51.902;12.836;2023-10-09T11:37:28;12.00;99.90
37300;DHT22;23184;51.902;12.836;2023-10-09T11:39:59;11.90;99.90
37300;DHT22;23184;51.902;12.836;2023-10-09T11:42:29;11.90;99.90
37300;DHT22;23184;51.902;12.836;2023-10-09T11:45:24;11.90;99.90
37300;DHT22;23184;51.902;12.836;2023-10-09T11:47:54;12.00;99.90
37300;DHT22;23184;51.902;12.836;2023-10-09T11:50:40;12.10;99.90
37300;DHT22;23184;51.902;12.836;2023-10-09T11:53:10;12.10;99.90
37300;DHT22;23184;51.902;12.836;2023-10-09T11:55:48;12.10;99.90
37300;DHT22;23184;51.902;12.836;2023-10-09T11:58:16;12.30;99.90
37300;DHT22;23184;51.902;12.836;2023-10-09T12:00:49;12.40;99.90
37300;DHT22;23184;51.902;12.836;2023-10-09T12:03:14;12.50;99.90
37300;DHT22;23184;51.902;12.836;2023-10-09T12:05:40;12.50;99.90
37300;DHT22;23184;51.902;12.836;2023-10-09T12:08:10;12.60;99.90
37300;DHT22;23184;51.902;12.836;2023-10-09T12:10:36;12.60;99.90
37300;DHT22;23184;51.902;12.836;2023-10-09T12:13:05;12.60;99.90
37300;DHT22;23184;51.902;12.836;2023-10-09T12:15:31;12.80;99.90
37300;DHT22;23184;51.902;12.836;2023-10-09T12:18:07;12.80;99.90
37300;DHT22;23184;51.902;12.836;2023-10-09T12:20:41;12.80;99.90
37300;DHT22;23184;51.902;12.836;2023-10-09T12:23:07;12.80;99.90
37300;DHT22;23184;51.902;12.836;2023-10-09T12:25:33;12.70;99.90
37300;DHT22;23184;51.902;12.836;2023-10-09T12:28:01;12.70;99.90
37300;DHT22;23184;51.902;12.836;2023-10-09T12:30:31;12.70;99.90
37300;DHT22;23184;51.902;12.836;2023-10-09T12:32:57;12.70;99.90
37300;DHT22;23184;51.902;12.836;2023-10-09T12:35:24;12.60;99.90
37300;DHT22;23184;51.902;12.836;2023-10-09T12:37:51;12.50;99.90
37300;DHT22;23184;51.902;12.836;2023-10-09T12:40:17;12.40;99.90
37300;DHT22;23184;51.902;12.836;2023-10-09T12:42:52;12.50;99.90
37300;DHT22;23184;51.902;12.836;2023-10-09T12:45:18;12.50;99.90
37300;DHT22;23184;51.902;12.836;2023-10-09T12:47:54;12.50;99.90
37300;DHT22;23184;51.902;12.836;2023-10-09T12:50:27;12.50;99.90
37300;DHT22;23184;51.902;12.836;2023-10-09T12:53:02;12.40;99.90
37300;DHT22;23184;51.902;12.836;2023-10-09T12:55:35;12.40;99.90
37300;DHT22;23184;51.902;12.836;2023-10-09T12:58:01;12.40;99.90
37300;DHT22;23184;51.902;12.836;2023-10-09T13:00:36;12.40;99.90
37300;DHT22;23184;51.902;12.836;2023-10-09T13:03:06;12.40;99.90
37300;DHT22;23184;51.902;12.836;2023-10-09T13:05:52;12.40;99.90
37300;DHT22;23184;51.902;12.836;2023-10-09T13:08:21;12.30;99.90
37300;DHT22;23184;51.902;12.836;2023-10-09T13:10:53;12.30;99.90
37300;DHT22;23184;51.902;12.836;2023-10-09T13:13:28;12.20;99.90
37300;DHT22;23184;51.902;12.836;2023-10-09T13:16:17;12.20;99.90
37300;DHT22;23184;51.902;12.836;2023-10-09T13:18:50;12.20;99.90
37300;DHT22;23184;51.902;12.836;2023-10-09T13:21:26;12.30;99.90
37300;DHT22;23184;51.902;12.836;2023-10-09T13:23:52;12.30;99.90
37300;DHT22;23184;51.902;12.836;2023-10-09T13:26:21;12.40;99.90
37300;DHT22;23184;51.902;12.836;2023-10-09T13:28:53;12.40;99.90
37300;DHT22;23184;51.902;12.836;2023-10-09T13:31:19;12.30;99.90
37300;DHT22;23184;51.902;12.836;2023-10-09T13:33:52;12.40;99.90
37300;DHT22;23184;51.902;12.836;2023-10-09T13:36:21;12.50;99.90
37300;DHT22;23184;51.902;12.836;2023-10-09T13:38:53;12.50;99.90
37300;DHT22;23184;51.902;12.836;2023-10-09T13:41:20;12.50;99.90
37300;DHT22;23184;51.902;12.836;2023-10-09T13:43:45;12.50;99.90
37300;DHT22;23184;51.902;12.836;2023-10-09T13:46:11;12.50;99.90
37300;DHT22;23184;51.902;12.836;2023-10-09T13:48:40;12.50;99.90
37300;DHT22;23184;51.902;12.836;2023-10-09T13:51:11;12.50;99.90
37300;DHT22;23184;51.902;12.836;2023-10-09T13:53:46;12.50;99.90
37300;DHT22;23184;51.902;12.836;2023-10-09T13:56:13;12.50;99.90
37300;DHT22;23184;51.902;12.836;2023-10-09T13:58:40;12.50;99.90
37300;DHT22;23184;51.902;12.836;2023-10-09T14:01:08;12.40;99.90
37300;DHT22;23184;51.902;12.836;2023-10-09T14:03:34;12.50;99.90
37300;DHT22;23184;51.902;12.836;2023-10-09T14:05:59;12.40;99.90
37300;DHT22;23184;51.902;12.836;2023-10-09T14:08:36;12.40;99.90
37300;DHT22;23184;51.902;12.836;2023-10-09T14:11:08;12.40;99.90
37300;DHT22;23184;51.902;12.836;2023-10-09T14:13:39;12.40;99.90
37300;DHT22;23184;51.902;12.836;2023-10-09T14:16:05;12.20;99.90
37300;DHT22;23184;51.902;12.836;2023-10-09T14:18:31;12.20;99.90
37300;DHT22;23184;51.902;12.836;2023-10-09T14:21:00;12.20;99.90
37300;DHT22;23184;51.902;12.836;2023-10-09T14:23:29;12.20;99.90
37300;DHT22;23184;51.902;12.836;2023-10-09T14:25:59;12.20;99.90
37300;DHT22;23184;51.902;12.836;2023-10-09T14:28:27;12.20;99.90
37300;DHT22;23184;51.902;12.836;2023-10-09T14:30:54;12.30;99.90
37300;DHT22;23184;51.902;12.836;2023-10-09T14:33:25;12.40;99.90
37300;DHT22;23184;51.902;12.836;2023-10-09T14:35:54;12.40;99.90
37300;DHT22;23184;51.902;12.836;2023-10-09T14:38:20;12.40;99.90
37300;DHT22;23184;51.902;12.836;2023-10-09T14:40:52;12.40;99.90
37300;DHT22;23184;51.902;12.836;2023-10-09T14:43:23;12.40;99.90
37300;DHT22;23184;51.902;12.836;2023-10-09T14:45:53;12.40;99.90
37300;DHT22;23184;51.902;12.836;2023-10-09T14:48:20;12.40;99.90
37300;DHT22;23184;51.902;12.836;2023-10-09T14:50:53;12.30;99.90
37300;DHT22;23184;51.902;12.836;2023-10-09T14:53:21;12.30;99.90
37300;DHT22;23184;51.902;12.836;2023-10-09T14:55:58;12.30;99.90
37300;DHT22;23184;51.902;12.836;2023-10-09T14:58:27;12.30;99.90
37300;DHT22;23184;51.902;12.836;2023-10-09T15:00:55;12.30;99.90
37300;DHT22;23184;51.902;12.836;2023-10-09T15:03:21;12.20;99.90
37300;DHT22;23184;51.902;12.836;2023-10-09T15:05:48;12.30;99.90
37300;DHT22;23184;51.902;12.836;2023-10-09T15:08:14;12.30;99.90
37300;DHT22;23184;51.902;12.836;2023-10-09T15:10:52;12.30;99.90
37300;DHT22;23184;51.902;12.836;2023-10-09T15:13:22;12.30;99.90
37300;DHT22;23184;51.902;12.836;2023-10-09T15:15:53;12.30;99.90
37300;DHT22;23184;51.902;12.836;2023-10-09T15:18:20;12.30;99.90
37300;DHT22;23184;51.902;12.836;2023-10-09T15:20:51;12.30;99.90
37300;DHT22;23184;51.902;12.836;2023-10-09T15:23:17;12.30;99.90
37300;DHT22;23184;51.902;12.836;2023-10-09T15:25:45;12.30;99.90
37300;DHT22;23184;51.902;12.836;2023-10-09T15:28:15;12.30;99.90
37300;DHT22;23184;51.902;12.836;2023-10-09T15:30:41;12.30;99.90
37300;DHT22;23184;51.902;12.836;2023-10-09T15:33:08;12.30;99.90
37300;DHT22;23184;51.902;12.836;2023-10-09T15:35:36;12.30;99.90
37300;DHT22;23184;51.902;12.836;2023-10-09T15:38:03;12.20;99.90
37300;DHT22;23184;51.902;12.836;2023-10-09T15:40:32;12.30;99.90
37300;DHT22;23184;51.902;12.836;2023-10-09T15:43:00;12.20;99.90
37300;DHT22;23184;51.902;12.836;2023-10-09T15:45:26;12.10;99.90
37300;DHT22;23184;51.902;12.836;2023-10-09T15:47:54;12.10;99.90
37300;DHT22;23184;51.902;12.836;2023-10-09T15:50:21;12.10;99.90
37300;DHT22;23184;51.902;12.836;2023-10-09T15:52:53;12.10;99.90
37300;DHT22;23184;51.902;12.836;2023-10-09T15:55:19;12.10;99.90
37300;DHT22;23184;51.902;12.836;2023-10-09T15:57:46;12.00;99.90
37300;DHT22;23184;51.902;12.836;2023-10-09T16:00:14;12.00;99.90
37300;DHT22;23184;51.902;12.836;2023-10-09T16:02:46;12.00;99.90
37300;DHT22;23184;51.902;12.836;2023-10-09T16:05:12;12.00;99.90
37300;DHT22;23184;51.902;12.836;2023-10-09T16:07:38;12.00;99.90
37300;DHT22;23184;51.902;12.836;2023-10-09T16:10:06;12.00;99.90
37300;DHT22;23184;51.902;12.836;2023-10-09T16:12:33;12.00;99.90